Time;durP1;ratioP1;P1;durP2;ratioP2;P2;SDS_P1;SDS_P2;PMS_P1;PMS_P2;Temp;Humidity;BMP_temperature;BMP_pressure;BME280_temperature;BME280_humidity;BME280_pressure;Samples;Min_cycle;Max_cycle;Signal;HPM_P1;HPM_P2
2022/04/21 00:00:27;;;;;;;;;;;;;;;;;;5056893;28;19916;-21
2022/04/21 00:02:53;;;;;;;;;;;;;;;;;;5056469;28;19920;-22
2022/04/21 00:05:19;;;;;;;;;;;;;;;;;;5056372;28;19978;-21
2022/04/21 00:07:48;;;;;;;;;;;;;;;;;;5056463;28;19908;-22
2022/04/21 00:10:14;;;;;;;;;;;;;;;;;;5038887;28;19913;-22
2022/04/21 00:12:40;;;;;;;;;;;;;;;;;;5056700;28;19913;-23
2022/04/21 00:15:06;;;;;;;;;;;;;;;;;;5056658;28;19912;-23
2022/04/21 00:17:32;;;;;;;;;;;;;;;;;;5056670;28;20290;-21
2022/04/21 00:19:59;;;;;;;;;;;;;;;;;;5056283;28;19913;-21
2022/04/21 00:25:09;;;;;;;;;;;;;;;;;;5056293;28;19923;-22
2022/04/21 00:27:35;;;;;;;;;;;;;;;;;;5056141;28;19913;-21
2022/04/21 00:30:01;;;;;;;;;;;;;;;;;;5056119;28;19912;-21
2022/04/21 00:32:27;;;;;;;;;;;;;;;;;;5055984;28;19928;-22
2022/04/21 00:34:53;;;;;;;;;;;;;;;;;;5056231;28;19917;-22
2022/04/21 00:37:19;;;;;;;;;;;;;;;;;;5056036;28;20414;-22
2022/04/21 00:39:45;;;;;;;;;;;;;;;;;;5056444;28;19912;-26
2022/04/21 00:42:11;;;;;;;;;;;;;;;;;;5055740;28;20281;-23
2022/04/21 00:44:37;;;;;;;;;;;;;;;;;;5056170;28;19909;-22
2022/04/21 00:47:03;;;;;;;;;;;;;;;;;;5055691;28;20347;-25
2022/04/21 00:49:29;;;;;;;;;;;;;;;;;;5056045;28;19919;-21
2022/04/21 00:51:55;;;;;;;;;;;;;;;;;;5055878;28;20347;-21
2022/04/21 00:54:21;;;;;;;;;;;;;;;;;;5055935;28;19951;-22
2022/04/21 00:56:47;;;;;;;;;;;;;;;;;;5056159;28;19924;-21
2022/04/21 00:59:13;;;;;;;;;;;;;;;;;;5055528;28;19913;-22
2022/04/21 01:04:24;;;;;;;;;;;;;;;;;;5055605;28;19923;-21
2022/04/21 01:06:50;;;;;;;;;;;;;;;;;;5055734;28;19921;-22
2022/04/21 01:09:16;;;;;;;;;;;;;;;;;;5055718;28;19909;-21
2022/04/21 01:11:42;;;;;;;;;;;;;;;;;;5055391;28;19913;-22
2022/04/21 01:14:08;;;;;;;;;;;;;;;;;;5055343;28;19909;-22
2022/04/21 01:16:34;;;;;;;;;;;;;;;;;;5055888;28;19913;-22
2022/04/21 01:19:01;;;;;;;;;;;;;;;;;;5055281;28;20287;-22
2022/04/21 01:21:27;;;;;;;;;;;;;;;;;;5055171;28;19970;-22
2022/04/21 01:23:53;;;;;;;;;;;;;;;;;;5055170;28;20251;-22
2022/04/21 01:26:19;;;;;;;;;;;;;;;;;;5055238;28;19916;-23
2022/04/21 01:28:45;;;;;;;;;;;;;;;;;;5055060;28;19939;-23
2022/04/21 01:31:11;;;;;;;;;;;;;;;;;;5055136;28;19919;-25
2022/04/21 01:33:37;;;;;;;;;;;;;;;;;;5055613;28;20004;-23
2022/04/21 01:36:03;;;;;;;;;;;;;;;;;;5055278;28;19971;-22
2022/04/21 01:41:14;;;;;;;;;;;;;;;;;;5055054;28;19978;-22
2022/04/21 01:43:40;;;;;;;;;;;;;;;;;;5055181;28;19912;-22
2022/04/21 01:46:06;;;;;;;;;;;;;;;;;;5054986;28;19999;-25
2022/04/21 01:48:33;;;;;;;;;;;;;;;;;;5055269;28;19987;-22
2022/04/21 01:50:58;;;;;;;;;;;;;;;;;;5055212;28;19920;-22
2022/04/21 01:53:24;;;;;;;;;;;;;;;;;;5054870;28;19909;-22
2022/04/21 01:55:51;;;;;;;;;;;;;;;;;;5055438;28;20367;-23
2022/04/21 01:58:17;;;;;;;;;;;;;;;;;;5056131;28;20003;-24
2022/04/21 02:00:43;;;;;;;;;;;;;;;;;;5058918;28;20010;-24
2022/04/21 02:03:09;;;;;;;;;;;;;;;;;;5058754;28;19992;-24
2022/04/21 02:05:35;;;;;;;;;;;;;;;;;;5058843;28;19920;-22
2022/04/21 02:08:02;;;;;;;;;;;;;;;;;;5058797;28;20312;-25
2022/04/21 02:10:30;;;;;;;;;;;;;;;;;;5058663;28;20393;-26
2022/04/21 02:12:56;;;;;;;;;;;;;;;;;;5058568;28;19947;-25
2022/04/21 02:15:23;;;;;;;;;;;;;;;;;;5059225;28;19920;-22
2022/04/21 02:17:49;;;;;;;;;;;;;;;;;;5058557;28;20012;-25
2022/04/21 02:20:15;;;;;;;;;;;;;;;;;;5059094;28;19945;-22
2022/04/21 02:22:41;;;;;;;;;;;;;;;;;;5058623;28;19952;-26
2022/04/21 02:25:07;;;;;;;;;;;;;;;;;;5058476;28;20287;-22
2022/04/21 02:27:33;;;;;;;;;;;;;;;;;;5058684;28;19994;-22
2022/04/21 02:29:59;;;;;;;;;;;;;;;;;;5058924;28;19912;-30
2022/04/21 02:32:25;;;;;;;;;;;;;;;;;;5058227;28;20271;-22
2022/04/21 02:34:53;;;;;;;;;;;;;;;;;;5058231;28;19913;-25
2022/04/21 02:37:20;;;;;;;;;;;;;;;;;;5058297;28;19909;-24
2022/04/21 02:39:46;;;;;;;;;;;;;;;;;;5058436;28;19913;-23
2022/04/21 02:42:12;;;;;;;;;;;;;;;;;;5058073;28;19913;-23
2022/04/21 02:44:41;;;;;;;;;;;;;;;;;;5040478;28;19920;-23
2022/04/21 02:47:09;;;;;;;;;;;;;;;;;;5058073;28;19995;-23
2022/04/21 02:49:35;;;;;;;;;;;;;;;;;;5040381;28;19913;-24
2022/04/21 02:52:01;;;;;;;;;;;;;;;;;;5057895;28;19962;-26
2022/04/21 02:57:21;;;;;;;;;;;;;;;;;;5057927;28;20023;-22
2022/04/21 02:59:47;;;;;;;;;;;;;;;;;;5057866;28;19932;-25
2022/04/21 03:02:13;;;;;;;;;;;;;;;;;;5057874;28;19917;-22
2022/04/21 03:04:39;;;;;;;;;;;;;;;;;;5058369;28;19915;-22
2022/04/21 03:07:05;;;;;;;;;;;;;;;;;;5057486;28;19921;-23
2022/04/21 03:09:32;;;;;;;;;;;;;;;;;;5056674;28;19960;-22
2022/04/21 03:11:58;;;;;;;;;;;;;;;;;;5057328;28;19966;-25
2022/04/21 03:14:24;;;;;;;;;;;;;;;;;;5057558;28;19921;-22
2022/04/21 03:16:50;;;;;;;;;;;;;;;;;;5058373;28;19913;-24
2022/04/21 03:19:16;;;;;;;;;;;;;;;;;;5057766;28;20348;-22
2022/04/21 03:24:26;;;;;;;;;;;;;;;;;;5057425;28;19920;-24
2022/04/21 03:26:52;;;;;;;;;;;;;;;;;;5057302;28;20063;-22
2022/04/21 03:29:18;;;;;;;;;;;;;;;;;;5057528;28;19974;-22
2022/04/21 03:31:44;;;;;;;;;;;;;;;;;;5039742;28;19909;-23
2022/04/21 03:34:10;;;;;;;;;;;;;;;;;;5057668;28;20122;-23
2022/04/21 03:36:36;;;;;;;;;;;;;;;;;;5057431;28;20006;-27
2022/04/21 03:39:02;;;;;;;;;;;;;;;;;;5057073;28;20371;-24
2022/04/21 03:41:28;;;;;;;;;;;;;;;;;;5056977;28;19924;-26
2022/04/21 03:43:54;;;;;;;;;;;;;;;;;;5056912;28;19920;-22
2022/04/21 03:46:20;;;;;;;;;;;;;;;;;;5056854;28;19913;-26
2022/04/21 03:48:46;;;;;;;;;;;;;;;;;;5057458;28;20378;-23
2022/04/21 03:51:12;;;;;;;;;;;;;;;;;;5057122;28;19913;-25
2022/04/21 03:53:38;;;;;;;;;;;;;;;;;;5056770;28;20267;-23
2022/04/21 03:56:04;;;;;;;;;;;;;;;;;;5057227;28;19913;-23
2022/04/21 03:58:30;;;;;;;;;;;;;;;;;;5056640;28;19920;-22
2022/04/21 04:00:56;;;;;;;;;;;;;;;;;;5056794;28;19916;-24
2022/04/21 04:03:22;;;;;;;;;;;;;;;;;;5056717;28;19913;-27
2022/04/21 04:05:48;;;;;;;;;;;;;;;;;;5056276;28;19921;-23
2022/04/21 04:11:00;;;;;;;;;;;;;;;;;;5056645;28;19920;-23
2022/04/21 04:13:26;;;;;;;;;;;;;;;;;;5056242;28;19909;-22
2022/04/21 04:15:53;;;;;;;;;;;;;;;;;;5038663;28;20294;-24
2022/04/21 04:18:19;;;;;;;;;;;;;;;;;;5056825;28;19967;-24
2022/04/21 04:20:45;;;;;;;;;;;;;;;;;;5056001;28;19948;-23
2022/04/21 04:23:12;;;;;;;;;;;;;;;;;;5056555;28;19996;-22
2022/04/21 04:25:37;;;;;;;;;;;;;;;;;;5056873;28;19966;-24
2022/04/21 04:28:04;;;;;;;;;;;;;;;;;;5055988;28;19913;-24
2022/04/21 04:30:30;;;;;;;;;;;;;;;;;;5055787;28;20355;-25
2022/04/21 04:32:56;;;;;;;;;;;;;;;;;;5055695;28;20358;-24
2022/04/21 04:35:25;;;;;;;;;;;;;;;;;;5056338;28;19924;-22
2022/04/21 04:37:51;;;;;;;;;;;;;;;;;;5038188;28;20328;-22
2022/04/21 04:40:17;;;;;;;;;;;;;;;;;;5055852;28;19923;-24
2022/04/21 04:42:43;;;;;;;;;;;;;;;;;;5056019;28;19916;-23
2022/04/21 04:47:54;;;;;;;;;;;;;;;;;;5055750;28;19916;-24
2022/04/21 04:50:20;;;;;;;;;;;;;;;;;;5055528;28;19912;-22
2022/04/21 04:52:47;;;;;;;;;;;;;;;;;;5055837;28;19909;-22
2022/04/21 04:55:13;;;;;;;;;;;;;;;;;;5055456;28;19928;-22
2022/04/21 04:57:39;;;;;;;;;;;;;;;;;;5055402;28;20258;-24
2022/04/21 05:00:05;;;;;;;;;;;;;;;;;;5055463;28;20007;-22
2022/04/21 05:02:31;;;;;;;;;;;;;;;;;;5055259;28;19942;-22
2022/04/21 05:04:57;;;;;;;;;;;;;;;;;;5055665;28;19908;-25
2022/04/21 05:07:23;;;;;;;;;;;;;;;;;;5055888;28;19921;-23
2022/04/21 05:09:49;;;;;;;;;;;;;;;;;;5055263;28;20024;-23
2022/04/21 05:12:16;;;;;;;;;;;;;;;;;;5055206;28;19932;-24
2022/04/21 05:14:42;;;;;;;;;;;;;;;;;;5055228;28;19986;-23
2022/04/21 05:17:08;;;;;;;;;;;;;;;;;;5055443;28;19995;-23
2022/04/21 05:19:34;;;;;;;;;;;;;;;;;;5055136;28;19958;-25
2022/04/21 05:22:00;;;;;;;;;;;;;;;;;;5055170;28;19985;-24
2022/04/21 05:24:26;;;;;;;;;;;;;;;;;;5055141;28;19913;-23
2022/04/21 05:26:52;;;;;;;;;;;;;;;;;;5054963;28;19915;-22
2022/04/21 05:32:03;;;;;;;;;;;;;;;;;;5055110;28;20039;-23
2022/04/21 05:34:29;;;;;;;;;;;;;;;;;;5054562;28;19913;-25
2022/04/21 05:36:55;;;;;;;;;;;;;;;;;;5037323;28;19919;-24
2022/04/21 05:39:21;;;;;;;;;;;;;;;;;;5054885;28;20003;-23
2022/04/21 05:41:47;;;;;;;;;;;;;;;;;;5054771;28;19916;-22
2022/04/21 05:44:13;;;;;;;;;;;;;;;;;;5055166;28;20371;-23
2022/04/21 05:46:39;;;;;;;;;;;;;;;;;;5054763;28;19948;-22
2022/04/21 05:49:05;;;;;;;;;;;;;;;;;;5037272;28;19916;-22
2022/04/21 05:51:31;;;;;;;;;;;;;;;;;;5054757;28;19959;-28
2022/04/21 05:53:57;;;;;;;;;;;;;;;;;;5037055;28;19913;-22
2022/04/21 05:56:23;;;;;;;;;;;;;;;;;;5054753;28;19909;-21
2022/04/21 05:58:49;;;;;;;;;;;;;;;;;;5055141;28;20000;-23
2022/04/21 06:03:57;;;;;;;;;;;;;;;;;;5113059;22;20299;-25
2022/04/21 06:06:23;;;;;;;;;;;;;;;;;;5017377;28;20278;-25
2022/04/21 06:08:49;;;;;;;;;;;;;;;;;;5034739;28;19909;-25
2022/04/21 06:11:16;;;;;;;;;;;;;;;;;;5034787;28;19967;-25
2022/04/21 06:13:42;;;;;;;;;;;;;;;;;;5034586;28;19909;-25
2022/04/21 06:16:08;;;;;;;;;;;;;;;;;;5034733;28;19920;-25
2022/04/21 06:18:35;;;;;;;;;;;;;;;;;;5034751;28;19909;-25
2022/04/21 06:21:01;;;;;;;;;;;;;;;;;;5034548;28;19953;-25
2022/04/21 06:23:28;;;;;;;;;;;;;;;;;;5034816;28;19955;-25
2022/04/21 06:25:58;;;;;;;;;;;;;;;;;;5034674;28;20300;-25
2022/04/21 06:28:25;;;;;;;;;;;;;;;;;;5034523;28;19952;-26
2022/04/21 06:30:51;;;;;;;;;;;;;;;;;;5034803;28;20258;-25
2022/04/21 06:33:17;;;;;;;;;;;;;;;;;;5017040;28;19992;-25
2022/04/21 06:35:44;;;;;;;;;;;;;;;;;;5034525;28;19917;-25
2022/04/21 06:38:10;;;;;;;;;;;;;;;;;;5034810;28;19913;-25
2022/04/21 06:40:36;;;;;;;;;;;;;;;;;;5034324;28;20370;-25
2022/04/21 06:48:01;;;;;;;;;;;;;;;;;;5034217;28;19917;-25
2022/04/21 06:48:33;;;;;;;;;;;;;;;;;;5037994;28;19942;-25
2022/04/21 06:50:59;;;;;;;;;;;;;;;;;;5020442;28;19924;-25
2022/04/21 06:53:25;;;;;;;;;;;;;;;;;;5037763;28;19909;-25
2022/04/21 06:55:51;;;;;;;;;;;;;;;;;;5037746;28;19920;-25
2022/04/21 06:58:17;;;;;;;;;;;;;;;;;;5038320;28;19968;-25
2022/04/21 07:00:43;;;;;;;;;;;;;;;;;;5038329;28;19923;-25
2022/04/21 07:03:09;;;;;;;;;;;;;;;;;;5037544;28;19947;-25
2022/04/21 07:05:35;;;;;;;;;;;;;;;;;;5037783;28;19909;-25
2022/04/21 07:08:01;;;;;;;;;;;;;;;;;;5037682;28;19983;-25
2022/04/21 07:10:27;;;;;;;;;;;;;;;;;;5037575;28;19936;-25
2022/04/21 07:12:54;;;;;;;;;;;;;;;;;;5037510;28;19924;-25
2022/04/21 07:15:20;;;;;;;;;;;;;;;;;;5037457;28;20309;-25
2022/04/21 07:17:46;;;;;;;;;;;;;;;;;;5019952;28;19963;-25
2022/04/21 07:20:12;;;;;;;;;;;;;;;;;;5037559;28;19917;-25
2022/04/21 07:22:38;;;;;;;;;;;;;;;;;;5037404;28;19990;-25
2022/04/21 07:25:04;;;;;;;;;;;;;;;;;;5037687;28;20003;-25
2022/04/21 07:27:30;;;;;;;;;;;;;;;;;;5037058;28;19909;-24
2022/04/21 07:29:56;;;;;;;;;;;;;;;;;;5037099;28;19913;-25
2022/04/21 07:32:22;;;;;;;;;;;;;;;;;;5037330;28;19916;-25
2022/04/21 07:34:48;;;;;;;;;;;;;;;;;;5037008;28;19913;-25
2022/04/21 07:37:14;;;;;;;;;;;;;;;;;;5037080;28;19913;-25
2022/04/21 07:39:43;;;;;;;;;;;;;;;;;;5037368;28;19909;-26
2022/04/21 07:42:09;;;;;;;;;;;;;;;;;;5036532;28;19917;-26
2022/04/21 07:44:35;;;;;;;;;;;;;;;;;;5037193;28;19924;-25
2022/04/21 07:47:01;;;;;;;;;;;;;;;;;;5037064;28;19913;-25
2022/04/21 07:49:46;;;;;;;;;;;;;;;;;;5037028;28;19913;-25
2022/04/21 07:54:56;;;;;;;;;;;;;;;;;;5036713;28;19971;-25
2022/04/21 07:57:22;;;;;;;;;;;;;;;;;;5035813;28;19917;-25
2022/04/21 07:59:48;;;;;;;;;;;;;;;;;;5019071;28;19970;-26
2022/04/21 08:02:16;;;;;;;;;;;;;;;;;;5036293;28;20298;-26
2022/04/21 08:04:43;;;;;;;;;;;;;;;;;;5036408;28;20355;-26
2022/04/21 08:07:09;;;;;;;;;;;;;;;;;;5018925;28;19909;-26
2022/04/21 08:09:35;;;;;;;;;;;;;;;;;;5036458;28;19927;-25
2022/04/21 08:12:01;;;;;;;;;;;;;;;;;;5036291;28;20347;-25
2022/04/21 08:14:28;;;;;;;;;;;;;;;;;;5037025;28;19932;-25
2022/04/21 08:16:54;;;;;;;;;;;;;;;;;;5036281;28;19913;-25
2022/04/21 08:19:20;;;;;;;;;;;;;;;;;;5036270;28;19928;-25
2022/04/21 08:21:49;;;;;;;;;;;;;;;;;;5036249;28;19928;-25
2022/04/21 08:32:43;;;;;;;;;;;;;;;;;;5036253;28;19963;-25
2022/04/21 08:35:09;;;;;;;;;;;;;;;;;;5018385;28;19924;-25
2022/04/21 08:37:35;;;;;;;;;;;;;;;;;;5018422;28;20418;-25
2022/04/21 08:40:01;;;;;;;;;;;;;;;;;;5018365;28;20398;-25
2022/04/21 08:42:27;;;;;;;;;;;;;;;;;;5035688;28;19917;-25
2022/04/21 08:44:53;;;;;;;;;;;;;;;;;;5035784;28;20003;-25
2022/04/21 08:47:19;;;;;;;;;;;;;;;;;;5018182;28;19913;-28
2022/04/21 08:49:45;;;;;;;;;;;;;;;;;;5036230;28;19928;-26
2022/04/21 08:52:12;;;;;;;;;;;;;;;;;;5035628;28;19917;-26
2022/04/21 08:54:38;;;;;;;;;;;;;;;;;;5035668;28;19917;-26
2022/04/21 08:57:04;;;;;;;;;;;;;;;;;;5035746;28;19964;-25
2022/04/21 08:59:30;;;;;;;;;;;;;;;;;;5035493;28;20267;-26
2022/04/21 09:01:56;;;;;;;;;;;;;;;;;;5035701;28;19960;-26
2022/04/21 09:04:22;;;;;;;;;;;;;;;;;;5035272;28;20347;-24
2022/04/21 09:06:48;;;;;;;;;;;;;;;;;;5035219;28;19916;-24
2022/04/21 09:09:14;;;;;;;;;;;;;;;;;;5035041;28;19909;-24
2022/04/21 09:11:43;;;;;;;;;;;;;;;;;;5017194;28;21247;-25
2022/04/21 09:14:09;;;;;;;;;;;;;;;;;;5035184;28;19924;-24
2022/04/21 09:16:35;;;;;;;;;;;;;;;;;;5035273;28;19910;-24
2022/04/21 09:19:01;;;;;;;;;;;;;;;;;;5035684;28;19921;-24
2022/04/21 09:21:27;;;;;;;;;;;;;;;;;;5034912;28;20236;-28
2022/04/21 09:23:54;;;;;;;;;;;;;;;;;;5035043;28;19917;-25
2022/04/21 09:26:21;;;;;;;;;;;;;;;;;;5034903;28;19913;-24
2022/04/21 09:28:47;;;;;;;;;;;;;;;;;;5034898;28;19917;-25
2022/04/21 09:31:13;;;;;;;;;;;;;;;;;;5034846;28;19917;-24
2022/04/21 09:33:40;;;;;;;;;;;;;;;;;;5034877;28;19917;-24
2022/04/21 09:36:06;;;;;;;;;;;;;;;;;;5034801;28;20351;-25
2022/04/21 09:38:34;;;;;;;;;;;;;;;;;;5017421;28;19925;-24
2022/04/21 09:41:00;;;;;;;;;;;;;;;;;;5034965;28;19909;-24
2022/04/21 09:43:26;;;;;;;;;;;;;;;;;;5034632;28;19924;-25
2022/04/21 09:46:10;;;;;;;;;;;;;;;;;;5035228;28;19909;-24
2022/04/21 09:48:36;;;;;;;;;;;;;;;;;;5034827;28;19913;-24
2022/04/21 09:51:02;;;;;;;;;;;;;;;;;;5035124;28;19924;-25
2022/04/21 09:53:28;;;;;;;;;;;;;;;;;;5017411;28;20374;-25
2022/04/21 09:55:54;;;;;;;;;;;;;;;;;;5034719;28;19929;-25
2022/04/21 09:58:20;;;;;;;;;;;;;;;;;;5017421;28;19975;-25
2022/04/21 10:00:46;;;;;;;;;;;;;;;;;;5034776;28;19948;-25
2022/04/21 10:03:12;;;;;;;;;;;;;;;;;;5034557;28;19964;-25
2022/04/21 10:05:39;;;;;;;;;;;;;;;;;;5034704;28;19955;-25
2022/04/21 10:08:05;;;;;;;;;;;;;;;;;;5034692;28;19909;-25
2022/04/21 10:10:31;;;;;;;;;;;;;;;;;;5034729;28;20336;-25
2022/04/21 10:12:59;;;;;;;;;;;;;;;;;;5034593;28;20233;-26
2022/04/21 10:15:25;;;;;;;;;;;;;;;;;;5035171;28;20199;-25
2022/04/21 10:17:51;;;;;;;;;;;;;;;;;;5034881;28;20004;-25
2022/04/21 10:20:17;;;;;;;;;;;;;;;;;;5037435;28;19992;-25
2022/04/21 10:22:44;;;;;;;;;;;;;;;;;;5038437;28;20003;-25
2022/04/21 10:25:10;;;;;;;;;;;;;;;;;;5038447;28;19920;-25
2022/04/21 10:27:36;;;;;;;;;;;;;;;;;;5038422;28;20251;-25
2022/04/21 10:30:02;;;;;;;;;;;;;;;;;;5038357;28;20004;-25
2022/04/21 10:32:28;;;;;;;;;;;;;;;;;;5038307;28;19920;-25
2022/04/21 10:34:56;;;;;;;;;;;;;;;;;;5038307;28;19913;-25
2022/04/21 10:37:22;;;;;;;;;;;;;;;;;;5038503;28;19913;-25
2022/04/21 10:39:48;;;;;;;;;;;;;;;;;;5038067;28;19920;-25
2022/04/21 10:42:14;;;;;;;;;;;;;;;;;;5038046;28;19917;-25
2022/04/21 10:44:41;;;;;;;;;;;;;;;;;;5037893;28;20276;-25
2022/04/21 10:47:07;;;;;;;;;;;;;;;;;;5037733;28;19909;-25
2022/04/21 10:49:33;;;;;;;;;;;;;;;;;;5038122;28;19940;-25
2022/04/21 10:57:21;;;;;;;;;;;;;;;;;;5037538;28;19920;-25
2022/04/21 10:59:47;;;;;;;;;;;;;;;;;;5037470;28;20212;-26
2022/04/21 11:02:14;;;;;;;;;;;;;;;;;;5037094;28;19917;-26
2022/04/21 11:04:40;;;;;;;;;;;;;;;;;;5037554;28;20233;-26
2022/04/21 11:07:06;;;;;;;;;;;;;;;;;;5037558;28;19916;-26
2022/04/21 11:09:32;;;;;;;;;;;;;;;;;;5037668;28;19924;-26
2022/04/21 11:11:58;;;;;;;;;;;;;;;;;;5037255;28;19913;-25
2022/04/21 11:14:24;;;;;;;;;;;;;;;;;;5037342;28;19913;-25
2022/04/21 11:16:50;;;;;;;;;;;;;;;;;;5037120;28;19920;-26
2022/04/21 11:19:16;;;;;;;;;;;;;;;;;;5019710;28;19909;-26
2022/04/21 11:21:42;;;;;;;;;;;;;;;;;;5036985;28;19916;-25
2022/04/21 11:24:08;;;;;;;;;;;;;;;;;;5037660;28;20368;-25
2022/04/21 11:26:34;;;;;;;;;;;;;;;;;;5036963;28;20233;-25
2022/04/21 11:29:00;;;;;;;;;;;;;;;;;;5037363;28;19909;-26
2022/04/21 11:31:26;;;;;;;;;;;;;;;;;;5018498;28;19949;-26
2022/04/21 11:33:52;;;;;;;;;;;;;;;;;;5037415;28;19956;-24
2022/04/21 11:36:18;;;;;;;;;;;;;;;;;;5036978;28;20007;-25
2022/04/21 11:38:44;;;;;;;;;;;;;;;;;;5036646;28;19910;-25
2022/04/21 11:41:11;;;;;;;;;;;;;;;;;;5019193;28;19917;-24
2022/04/21 11:43:37;;;;;;;;;;;;;;;;;;5036677;28;19920;-24
2022/04/21 11:46:03;;;;;;;;;;;;;;;;;;5019207;28;19917;-25
2022/04/21 11:48:30;;;;;;;;;;;;;;;;;;5036435;28;19909;-24
2022/04/21 11:50:56;;;;;;;;;;;;;;;;;;5036565;28;19917;-25
2022/04/21 11:53:22;;;;;;;;;;;;;;;;;;5036467;28;19913;-25
2022/04/21 11:55:48;;;;;;;;;;;;;;;;;;5036390;28;19924;-25
2022/04/21 11:58:14;;;;;;;;;;;;;;;;;;5036942;28;19916;-25
2022/04/21 12:06:28;;;;;;;;;;;;;;;;;;5036339;28;19917;-25
2022/04/21 12:08:54;;;;;;;;;;;;;;;;;;5036725;28;19919;-25
2022/04/21 12:11:21;;;;;;;;;;;;;;;;;;5036207;28;20340;-25
2022/04/21 12:13:47;;;;;;;;;;;;;;;;;;5036327;28;19924;-25
2022/04/21 12:16:13;;;;;;;;;;;;;;;;;;5036502;28;20384;-25
2022/04/21 12:18:39;;;;;;;;;;;;;;;;;;5036212;28;19952;-24
2022/04/21 12:21:05;;;;;;;;;;;;;;;;;;5036296;28;19905;-25
2022/04/21 12:23:31;;;;;;;;;;;;;;;;;;5035901;28;19917;-25
2022/04/21 12:25:58;;;;;;;;;;;;;;;;;;5036137;28;20252;-26
2022/04/21 12:28:24;;;;;;;;;;;;;;;;;;5036196;28;19963;-25
2022/04/21 12:30:50;;;;;;;;;;;;;;;;;;5036050;28;19932;-24
2022/04/21 12:33:16;;;;;;;;;;;;;;;;;;5035779;28;19913;-25
2022/04/21 12:35:43;;;;;;;;;;;;;;;;;;5035961;28;19909;-24
2022/04/21 12:40:55;;;;;;;;;;;;;;;;;;5035721;28;19924;-25
2022/04/21 12:43:21;;;;;;;;;;;;;;;;;;5035391;28;20314;-24
2022/04/21 12:45:47;;;;;;;;;;;;;;;;;;5036022;28;20271;-24
2022/04/21 12:48:13;;;;;;;;;;;;;;;;;;5035611;28;19921;-24
2022/04/21 12:50:39;;;;;;;;;;;;;;;;;;5035198;28;19913;-24
2022/04/21 12:53:06;;;;;;;;;;;;;;;;;;5035266;28;19928;-25
2022/04/21 12:55:32;;;;;;;;;;;;;;;;;;5035276;28;19913;-24
2022/04/21 12:57:58;;;;;;;;;;;;;;;;;;5035099;28;19920;-24
2022/04/21 13:00:24;;;;;;;;;;;;;;;;;;5035111;28;20011;-25
2022/04/21 13:02:50;;;;;;;;;;;;;;;;;;5034815;28;20395;-25
2022/04/21 13:05:16;;;;;;;;;;;;;;;;;;5017602;28;19996;-26
2022/04/21 13:07:42;;;;;;;;;;;;;;;;;;5035015;28;19948;-25
2022/04/21 13:10:08;;;;;;;;;;;;;;;;;;5035002;28;19909;-25
2022/04/21 13:12:34;;;;;;;;;;;;;;;;;;5034842;28;19909;-24
2022/04/21 13:15:00;;;;;;;;;;;;;;;;;;5034890;28;19920;-25
2022/04/21 13:17:26;;;;;;;;;;;;;;;;;;5035248;28;19909;-25
2022/04/21 13:19:52;;;;;;;;;;;;;;;;;;5034852;28;19919;-25
2022/04/21 13:22:19;;;;;;;;;;;;;;;;;;5035028;28;20288;-25
2022/04/21 13:24:45;;;;;;;;;;;;;;;;;;5035588;28;19913;-25
2022/04/21 13:27:11;;;;;;;;;;;;;;;;;;5035326;28;20008;-25
2022/04/21 13:29:37;;;;;;;;;;;;;;;;;;5035452;28;19913;-25
2022/04/21 13:34:49;;;;;;;;;;;;;;;;;;5034905;28;19979;-25
2022/04/21 13:37:15;;;;;;;;;;;;;;;;;;5034811;28;19909;-25
2022/04/21 13:39:41;;;;;;;;;;;;;;;;;;5034737;28;19923;-25
2022/04/21 13:42:07;;;;;;;;;;;;;;;;;;5034750;28;19916;-25
2022/04/21 13:44:33;;;;;;;;;;;;;;;;;;5034886;28;20372;-25
2022/04/21 13:46:59;;;;;;;;;;;;;;;;;;5035276;28;20309;-25
2022/04/21 13:49:25;;;;;;;;;;;;;;;;;;5035534;28;19909;-25
2022/04/21 13:51:51;;;;;;;;;;;;;;;;;;5034942;28;20333;-25
2022/04/21 13:54:18;;;;;;;;;;;;;;;;;;5036250;28;19913;-25
2022/04/21 13:56:44;;;;;;;;;;;;;;;;;;5038780;28;19913;-25
2022/04/21 13:59:10;;;;;;;;;;;;;;;;;;5038811;28;19916;-25
2022/04/21 14:01:37;;;;;;;;;;;;;;;;;;5021252;28;19920;-25
2022/04/21 14:04:03;;;;;;;;;;;;;;;;;;5038448;28;20362;-25
2022/04/21 14:06:29;;;;;;;;;;;;;;;;;;5021108;28;20048;-25
2022/04/21 14:08:55;;;;;;;;;;;;;;;;;;5038865;28;19913;-25
2022/04/21 14:11:21;;;;;;;;;;;;;;;;;;5038790;28;19919;-25
2022/04/21 14:13:47;;;;;;;;;;;;;;;;;;5038352;28;19914;-25
2022/04/21 14:16:13;;;;;;;;;;;;;;;;;;5038891;28;19932;-25
2022/04/21 14:18:39;;;;;;;;;;;;;;;;;;5038484;28;19991;-25
2022/04/21 14:21:09;;;;;;;;;;;;;;;;;;5039217;28;19925;-25
2022/04/21 14:23:38;;;;;;;;;;;;;;;;;;5038264;28;20299;-25
2022/04/21 14:26:04;;;;;;;;;;;;;;;;;;5038842;28;19913;-25
2022/04/21 14:28:30;;;;;;;;;;;;;;;;;;5038610;28;20019;-25
2022/04/21 14:30:56;;;;;;;;;;;;;;;;;;5038216;28;20233;-25
2022/04/21 14:33:23;;;;;;;;;;;;;;;;;;5038140;28;19981;-25
2022/04/21 14:35:50;;;;;;;;;;;;;;;;;;5038227;28;19909;-25
2022/04/21 14:44:18;;;;;;;;;;;;;;;;;;5038090;28;19971;-26
2022/04/21 14:46:37;;;;;;;;;;;;;;;;;;5035266;28;19914;-26
2022/04/21 14:49:03;;;;;;;;;;;;;;;;;;5038270;28;19943;-25
2022/04/21 14:51:30;;;;;;;;;;;;;;;;;;5037868;28;19920;-25
2022/04/21 14:53:56;;;;;;;;;;;;;;;;;;5037728;28;19913;-25
2022/04/21 14:56:23;;;;;;;;;;;;;;;;;;5037863;28;20299;-26
2022/04/21 14:58:50;;;;;;;;;;;;;;;;;;5037738;28;19913;-25
2022/04/21 15:01:16;;;;;;;;;;;;;;;;;;5037690;28;19909;-25
2022/04/21 15:03:42;;;;;;;;;;;;;;;;;;5019963;28;19921;-25
2022/04/21 15:06:09;;;;;;;;;;;;;;;;;;5019975;28;19924;-25
2022/04/21 15:08:35;;;;;;;;;;;;;;;;;;5037484;28;19941;-24
2022/04/21 15:11:01;;;;;;;;;;;;;;;;;;5020072;28;19924;-25
2022/04/21 15:13:27;;;;;;;;;;;;;;;;;;5037411;28;20260;-24
2022/04/21 15:15:53;;;;;;;;;;;;;;;;;;5037873;28;20367;-24
2022/04/21 15:18:19;;;;;;;;;;;;;;;;;;5037267;28;19913;-24
2022/04/21 15:20:46;;;;;;;;;;;;;;;;;;5037581;28;19924;-25
2022/04/21 15:23:12;;;;;;;;;;;;;;;;;;5037513;28;19948;-24
2022/04/21 15:25:38;;;;;;;;;;;;;;;;;;5037581;28;20378;-24
2022/04/21 15:28:04;;;;;;;;;;;;;;;;;;5037606;28;20008;-25
2022/04/21 15:30:35;;;;;;;;;;;;;;;;;;5037248;28;19913;-24
2022/04/21 15:33:02;;;;;;;;;;;;;;;;;;5037158;28;20011;-25
2022/04/21 15:35:27;;;;;;;;;;;;;;;;;;5037153;28;20030;-24
2022/04/21 15:37:53;;;;;;;;;;;;;;;;;;5037640;28;20002;-24
2022/04/21 15:40:20;;;;;;;;;;;;;;;;;;5019567;28;20054;-24
2022/04/21 15:42:45;;;;;;;;;;;;;;;;;;5037086;28;19917;-24
2022/04/21 15:45:12;;;;;;;;;;;;;;;;;;5037257;28;19996;-25
2022/04/21 15:47:38;;;;;;;;;;;;;;;;;;5037151;28;19953;-25
2022/04/21 15:50:04;;;;;;;;;;;;;;;;;;5037095;28;20326;-25
2022/04/21 15:52:29;;;;;;;;;;;;;;;;;;5036773;28;19953;-25
2022/04/21 16:00:25;;;;;;;;;;;;;;;;;;5036718;28;20286;-24
2022/04/21 16:02:51;;;;;;;;;;;;;;;;;;5036203;28;19921;-24
2022/04/21 16:05:17;;;;;;;;;;;;;;;;;;5018993;28;19906;-25
2022/04/21 16:07:44;;;;;;;;;;;;;;;;;;5036612;28;20319;-24
2022/04/21 16:10:10;;;;;;;;;;;;;;;;;;5036253;28;19909;-24
2022/04/21 16:12:36;;;;;;;;;;;;;;;;;;5036490;28;19924;-24
2022/04/21 16:15:02;;;;;;;;;;;;;;;;;;5036380;28;20264;-25
2022/04/21 16:17:28;;;;;;;;;;;;;;;;;;5035748;28;20310;-24
2022/04/21 16:19:54;;;;;;;;;;;;;;;;;;5036584;28;19909;-24
2022/04/21 16:22:20;;;;;;;;;;;;;;;;;;5036216;28;20264;-24
2022/04/21 16:24:46;;;;;;;;;;;;;;;;;;5036713;28;19909;-24
2022/04/21 16:27:12;;;;;;;;;;;;;;;;;;5036113;28;19924;-24
2022/04/21 16:29:38;;;;;;;;;;;;;;;;;;5036347;28;19909;-24
2022/04/21 16:32:05;;;;;;;;;;;;;;;;;;5036135;28;19924;-29
2022/04/21 16:34:31;;;;;;;;;;;;;;;;;;5018647;28;20406;-24
2022/04/21 16:36:57;;;;;;;;;;;;;;;;;;5018623;28;19916;-24
2022/04/21 16:39:23;;;;;;;;;;;;;;;;;;5035978;28;19924;-24
2022/04/21 16:41:49;;;;;;;;;;;;;;;;;;5036233;28;20275;-25
2022/04/21 16:44:15;;;;;;;;;;;;;;;;;;5036425;28;19913;-25
2022/04/21 16:46:41;;;;;;;;;;;;;;;;;;5035919;28;19906;-25
2022/04/21 16:49:07;;;;;;;;;;;;;;;;;;5035845;28;20000;-26
2022/04/21 16:51:33;;;;;;;;;;;;;;;;;;5035775;28;19913;-25
2022/04/21 16:53:59;;;;;;;;;;;;;;;;;;5018070;28;19970;-25
2022/04/21 16:56:25;;;;;;;;;;;;;;;;;;5035605;28;19905;-25
2022/04/21 16:58:51;;;;;;;;;;;;;;;;;;5036208;28;19913;-25
2022/04/21 17:04:01;;;;;;;;;;;;;;;;;;5035211;28;19928;-25
2022/04/21 17:06:30;;;;;;;;;;;;;;;;;;5035608;28;19905;-25
2022/04/21 17:08:56;;;;;;;;;;;;;;;;;;5035600;28;20296;-25
2022/04/21 17:11:22;;;;;;;;;;;;;;;;;;5017885;28;19910;-25
2022/04/21 17:13:49;;;;;;;;;;;;;;;;;;5035197;28;20236;-25
2022/04/21 17:16:15;;;;;;;;;;;;;;;;;;5035382;28;20003;-25
2022/04/21 17:18:41;;;;;;;;;;;;;;;;;;5035603;28;19913;-25
2022/04/21 17:21:07;;;;;;;;;;;;;;;;;;5017991;28;19915;-25
2022/04/21 17:23:33;;;;;;;;;;;;;;;;;;5017714;28;19925;-25
2022/04/21 17:25:59;;;;;;;;;;;;;;;;;;5035475;28;19917;-25
2022/04/21 17:28:25;;;;;;;;;;;;;;;;;;5034517;28;19967;-25
2022/04/21 17:30:51;;;;;;;;;;;;;;;;;;5034908;28;20306;-25
2022/04/21 17:33:18;;;;;;;;;;;;;;;;;;5035092;28;19925;-25
2022/04/21 17:35:43;;;;;;;;;;;;;;;;;;5035045;28;19959;-25
2022/04/21 17:38:10;;;;;;;;;;;;;;;;;;5035151;28;19910;-25
2022/04/21 17:40:36;;;;;;;;;;;;;;;;;;5017582;28;20275;-25
2022/04/21 17:43:02;;;;;;;;;;;;;;;;;;5034921;28;19921;-25
2022/04/21 17:45:28;;;;;;;;;;;;;;;;;;5034981;28;19909;-24
2022/04/21 17:48:00;;;;;;;;;;;;;;;;;;5035562;28;19956;-24